sensor_id;sensor_type;location;lat;lon;timestamp;temperature;humidity
53114;DHT22;39009;53.166;6.232;2022-08-19T00:02:13;14.10;99.90
53114;DHT22;39009;53.166;6.232;2022-08-19T00:04:39;14.10;99.90
53114;DHT22;39009;53.166;6.232;2022-08-19T00:07:05;14.10;99.90
53114;DHT22;39009;53.166;6.232;2022-08-19T00:09:31;14.10;99.90
53114;DHT22;39009;53.166;6.232;2022-08-19T00:11:57;14.10;99.90
53114;DHT22;39009;53.166;6.232;2022-08-19T00:14:23;14.10;99.90
53114;DHT22;39009;53.166;6.232;2022-08-19T00:16:49;14.10;99.90
53114;DHT22;39009;53.166;6.232;2022-08-19T00:19:16;14.10;99.90
53114;DHT22;39009;53.166;6.232;2022-08-19T00:21:42;14.10;99.90
53114;DHT22;39009;53.166;6.232;2022-08-19T00:24:09;14.00;99.90
53114;DHT22;39009;53.166;6.232;2022-08-19T00:26:35;14.00;99.90
53114;DHT22;39009;53.166;6.232;2022-08-19T00:29:01;14.00;99.90
53114;DHT22;39009;53.166;6.232;2022-08-19T00:31:27;14.00;99.90
53114;DHT22;39009;53.166;6.232;2022-08-19T00:33:53;14.00;99.90
53114;DHT22;39009;53.166;6.232;2022-08-19T00:36:19;14.00;99.90
53114;DHT22;39009;53.166;6.232;2022-08-19T00:38:45;14.00;99.90
53114;DHT22;39009;53.166;6.232;2022-08-19T00:41:17;14.00;99.90
53114;DHT22;39009;53.166;6.232;2022-08-19T00:44:01;13.90;99.90
53114;DHT22;39009;53.166;6.232;2022-08-19T00:46:27;13.90;99.90
53114;DHT22;39009;53.166;6.232;2022-08-19T00:48:56;13.90;99.90
53114;DHT22;39009;53.166;6.232;2022-08-19T00:51:24;13.90;99.90
53114;DHT22;39009;53.166;6.232;2022-08-19T00:53:52;13.80;99.90
53114;DHT22;39009;53.166;6.232;2022-08-19T00:56:17;13.80;99.90
53114;DHT22;39009;53.166;6.232;2022-08-19T00:58:43;13.70;99.90
53114;DHT22;39009;53.166;6.232;2022-08-19T01:01:09;13.70;99.90
53114;DHT22;39009;53.166;6.232;2022-08-19T01:03:35;13.70;99.90
53114;DHT22;39009;53.166;6.232;2022-08-19T01:06:00;13.60;99.90
53114;DHT22;39009;53.166;6.232;2022-08-19T01:08:26;13.70;99.90
53114;DHT22;39009;53.166;6.232;2022-08-19T01:10:52;13.60;99.90
53114;DHT22;39009;53.166;6.232;2022-08-19T01:13:20;13.60;99.90
53114;DHT22;39009;53.166;6.232;2022-08-19T01:15:47;13.60;99.90
53114;DHT22;39009;53.166;6.232;2022-08-19T01:18:15;13.60;99.90
53114;DHT22;39009;53.166;6.232;2022-08-19T01:20:42;13.50;99.90
53114;DHT22;39009;53.166;6.232;2022-08-19T01:23:08;13.40;99.90
53114;DHT22;39009;53.166;6.232;2022-08-19T01:25:38;13.40;99.90
53114;DHT22;39009;53.166;6.232;2022-08-19T01:28:06;13.40;99.90
53114;DHT22;39009;53.166;6.232;2022-08-19T01:30:33;13.30;99.90
53114;DHT22;39009;53.166;6.232;2022-08-19T01:32:59;13.40;99.90
53114;DHT22;39009;53.166;6.232;2022-08-19T01:35:26;13.40;99.90
53114;DHT22;39009;53.166;6.232;2022-08-19T01:37:53;13.30;99.90
53114;DHT22;39009;53.166;6.232;2022-08-19T01:40:20;13.30;99.90
53114;DHT22;39009;53.166;6.232;2022-08-19T01:42:47;13.30;99.90
53114;DHT22;39009;53.166;6.232;2022-08-19T01:45:13;13.30;99.90
53114;DHT22;39009;53.166;6.232;2022-08-19T01:47:38;13.30;99.90
53114;DHT22;39009;53.166;6.232;2022-08-19T01:50:05;13.20;99.90
53114;DHT22;39009;53.166;6.232;2022-08-19T01:52:31;13.20;99.90
53114;DHT22;39009;53.166;6.232;2022-08-19T01:54:57;13.10;99.90
53114;DHT22;39009;53.166;6.232;2022-08-19T01:57:22;13.10;99.90
53114;DHT22;39009;53.166;6.232;2022-08-19T01:59:48;13.10;99.90
53114;DHT22;39009;53.166;6.232;2022-08-19T02:02:13;13.10;99.90
53114;DHT22;39009;53.166;6.232;2022-08-19T02:04:39;13.10;99.90
53114;DHT22;39009;53.166;6.232;2022-08-19T02:07:05;13.00;99.90
53114;DHT22;39009;53.166;6.232;2022-08-19T02:09:31;13.00;99.90
53114;DHT22;39009;53.166;6.232;2022-08-19T02:11:57;13.00;99.90
53114;DHT22;39009;53.166;6.232;2022-08-19T02:14:23;13.00;99.90
53114;DHT22;39009;53.166;6.232;2022-08-19T02:16:49;13.00;99.90
53114;DHT22;39009;53.166;6.232;2022-08-19T02:19:14;13.00;99.90
53114;DHT22;39009;53.166;6.232;2022-08-19T02:21:40;13.00;99.90
53114;DHT22;39009;53.166;6.232;2022-08-19T02:24:06;12.90;99.90
53114;DHT22;39009;53.166;6.232;2022-08-19T02:26:32;12.90;99.90
53114;DHT22;39009;53.166;6.232;2022-08-19T02:28:57;12.90;99.90
53114;DHT22;39009;53.166;6.232;2022-08-19T02:31:24;12.90;99.90
53114;DHT22;39009;53.166;6.232;2022-08-19T02:33:50;12.90;99.90
53114;DHT22;39009;53.166;6.232;2022-08-19T02:36:16;12.90;99.90
53114;DHT22;39009;53.166;6.232;2022-08-19T02:38:42;12.90;99.90
53114;DHT22;39009;53.166;6.232;2022-08-19T02:41:11;12.80;99.90
53114;DHT22;39009;53.166;6.232;2022-08-19T02:43:37;12.80;99.90
53114;DHT22;39009;53.166;6.232;2022-08-19T02:46:18;12.70;99.90
53114;DHT22;39009;53.166;6.232;2022-08-19T02:48:47;12.80;99.90
53114;DHT22;39009;53.166;6.232;2022-08-19T02:51:17;12.80;99.90
53114;DHT22;39009;53.166;6.232;2022-08-19T02:53:42;12.70;99.90
53114;DHT22;39009;53.166;6.232;2022-08-19T02:56:08;12.70;99.90
53114;DHT22;39009;53.166;6.232;2022-08-19T02:58:34;12.70;99.90
53114;DHT22;39009;53.166;6.232;2022-08-19T03:00:59;12.70;99.90
53114;DHT22;39009;53.166;6.232;2022-08-19T03:03:25;12.60;99.90
53114;DHT22;39009;53.166;6.232;2022-08-19T03:05:51;12.60;99.90
53114;DHT22;39009;53.166;6.232;2022-08-19T03:08:17;12.60;99.90
53114;DHT22;39009;53.166;6.232;2022-08-19T03:10:44;12.60;99.90
53114;DHT22;39009;53.166;6.232;2022-08-19T03:13:11;12.50;99.90
53114;DHT22;39009;53.166;6.232;2022-08-19T03:15:39;12.50;99.90
53114;DHT22;39009;53.166;6.232;2022-08-19T03:18:04;12.50;99.90
53114;DHT22;39009;53.166;6.232;2022-08-19T03:20:30;12.50;99.90
53114;DHT22;39009;53.166;6.232;2022-08-19T03:22:55;12.50;99.90
53114;DHT22;39009;53.166;6.232;2022-08-19T03:25:21;12.50;99.90
53114;DHT22;39009;53.166;6.232;2022-08-19T03:27:46;12.50;99.90
53114;DHT22;39009;53.166;6.232;2022-08-19T03:30:14;12.50;99.90
53114;DHT22;39009;53.166;6.232;2022-08-19T03:32:39;12.40;99.90
53114;DHT22;39009;53.166;6.232;2022-08-19T03:35:06;12.40;99.90
53114;DHT22;39009;53.166;6.232;2022-08-19T03:37:32;12.40;99.90
53114;DHT22;39009;53.166;6.232;2022-08-19T03:39:57;12.40;99.90
53114;DHT22;39009;53.166;6.232;2022-08-19T03:42:23;12.40;99.90
53114;DHT22;39009;53.166;6.232;2022-08-19T03:44:48;12.40;99.90
53114;DHT22;39009;53.166;6.232;2022-08-19T03:47:14;12.40;99.90
53114;DHT22;39009;53.166;6.232;2022-08-19T03:49:41;12.30;99.90
53114;DHT22;39009;53.166;6.232;2022-08-19T03:52:07;12.30;99.90
53114;DHT22;39009;53.166;6.232;2022-08-19T03:54:33;12.30;99.90
53114;DHT22;39009;53.166;6.232;2022-08-19T03:56:58;12.20;99.90
53114;DHT22;39009;53.166;6.232;2022-08-19T03:59:26;12.90;99.90
53114;DHT22;39009;53.166;6.232;2022-08-19T04:01:53;12.20;99.90
53114;DHT22;39009;53.166;6.232;2022-08-19T04:04:19;12.20;99.90
53114;DHT22;39009;53.166;6.232;2022-08-19T04:06:44;12.20;99.90
53114;DHT22;39009;53.166;6.232;2022-08-19T04:09:12;12.30;99.90
53114;DHT22;39009;53.166;6.232;2022-08-19T04:11:39;12.30;99.90
53114;DHT22;39009;53.166;6.232;2022-08-19T04:14:07;12.30;99.90
53114;DHT22;39009;53.166;6.232;2022-08-19T04:16:33;12.40;99.90
53114;DHT22;39009;53.166;6.232;2022-08-19T04:18:59;12.40;99.90
53114;DHT22;39009;53.166;6.232;2022-08-19T04:21:26;12.40;99.90
53114;DHT22;39009;53.166;6.232;2022-08-19T04:23:52;12.40;99.90
53114;DHT22;39009;53.166;6.232;2022-08-19T04:26:22;12.40;99.90
53114;DHT22;39009;53.166;6.232;2022-08-19T04:28:48;12.40;99.90
53114;DHT22;39009;53.166;6.232;2022-08-19T04:31:16;12.40;99.90
53114;DHT22;39009;53.166;6.232;2022-08-19T04:33:42;12.50;99.90
53114;DHT22;39009;53.166;6.232;2022-08-19T04:36:26;12.40;99.90
53114;DHT22;39009;53.166;6.232;2022-08-19T04:38:53;12.50;99.90
53114;DHT22;39009;53.166;6.232;2022-08-19T04:41:19;12.50;99.90
53114;DHT22;39009;53.166;6.232;2022-08-19T04:44:03;12.50;99.90
53114;DHT22;39009;53.166;6.232;2022-08-19T04:46:29;12.50;99.90
53114;DHT22;39009;53.166;6.232;2022-08-19T04:48:57;12.50;99.90
53114;DHT22;39009;53.166;6.232;2022-08-19T04:51:23;12.50;99.90
53114;DHT22;39009;53.166;6.232;2022-08-19T04:53:49;12.60;99.90
53114;DHT22;39009;53.166;6.232;2022-08-19T04:56:15;12.60;99.90
53114;DHT22;39009;53.166;6.232;2022-08-19T04:58:43;12.60;99.90
53114;DHT22;39009;53.166;6.232;2022-08-19T05:01:19;12.60;99.90
53114;DHT22;39009;53.166;6.232;2022-08-19T05:03:45;12.70;99.90
53114;DHT22;39009;53.166;6.232;2022-08-19T05:06:11;12.80;99.90
53114;DHT22;39009;53.166;6.232;2022-08-19T05:08:38;12.80;99.90
53114;DHT22;39009;53.166;6.232;2022-08-19T05:11:08;12.80;99.90
53114;DHT22;39009;53.166;6.232;2022-08-19T05:13:34;12.90;99.90
53114;DHT22;39009;53.166;6.232;2022-08-19T05:16:00;13.00;99.90
53114;DHT22;39009;53.166;6.232;2022-08-19T05:18:25;13.10;99.90
53114;DHT22;39009;53.166;6.232;2022-08-19T05:21:11;13.30;99.90
53114;DHT22;39009;53.166;6.232;2022-08-19T05:23:55;13.50;99.90
53114;DHT22;39009;53.166;6.232;2022-08-19T05:26:22;13.60;99.90
53114;DHT22;39009;53.166;6.232;2022-08-19T05:28:48;13.70;99.90
53114;DHT22;39009;53.166;6.232;2022-08-19T05:31:14;14.00;99.90
53114;DHT22;39009;53.166;6.232;2022-08-19T05:33:39;14.20;99.90
53114;DHT22;39009;53.166;6.232;2022-08-19T05:36:05;14.30;99.90
53114;DHT22;39009;53.166;6.232;2022-08-19T05:38:33;14.40;99.90
53114;DHT22;39009;53.166;6.232;2022-08-19T05:40:58;14.60;99.90
53114;DHT22;39009;53.166;6.232;2022-08-19T05:43:24;14.60;99.90
53114;DHT22;39009;53.166;6.232;2022-08-19T05:45:50;14.80;99.90
53114;DHT22;39009;53.166;6.232;2022-08-19T05:48:16;14.90;99.90
53114;DHT22;39009;53.166;6.232;2022-08-19T05:50:45;15.10;99.90
53114;DHT22;39009;53.166;6.232;2022-08-19T05:53:12;15.30;99.90
53114;DHT22;39009;53.166;6.232;2022-08-19T05:55:37;15.60;99.90
53114;DHT22;39009;53.166;6.232;2022-08-19T05:58:04;15.80;99.90
53114;DHT22;39009;53.166;6.232;2022-08-19T06:00:33;16.00;99.90
53114;DHT22;39009;53.166;6.232;2022-08-19T06:02:58;16.20;99.90
53114;DHT22;39009;53.166;6.232;2022-08-19T06:05:29;16.40;99.90
53114;DHT22;39009;53.166;6.232;2022-08-19T06:07:54;16.70;99.90
53114;DHT22;39009;53.166;6.232;2022-08-19T06:10:20;17.00;99.90
53114;DHT22;39009;53.166;6.232;2022-08-19T06:12:47;17.60;99.90
53114;DHT22;39009;53.166;6.232;2022-08-19T06:15:13;18.20;99.90
53114;DHT22;39009;53.166;6.232;2022-08-19T06:17:39;18.70;99.90
53114;DHT22;39009;53.166;6.232;2022-08-19T06:20:05;19.00;99.90
53114;DHT22;39009;53.166;6.232;2022-08-19T06:22:31;19.20;99.90
53114;DHT22;39009;53.166;6.232;2022-08-19T06:25:02;19.40;99.90
53114;DHT22;39009;53.166;6.232;2022-08-19T06:27:29;19.60;99.90
53114;DHT22;39009;53.166;6.232;2022-08-19T06:29:56;19.90;99.90
53114;DHT22;39009;53.166;6.232;2022-08-19T06:32:21;20.20;99.90
53114;DHT22;39009;53.166;6.232;2022-08-19T06:34:47;20.40;99.90
53114;DHT22;39009;53.166;6.232;2022-08-19T06:37:12;20.70;99.90
53114;DHT22;39009;53.166;6.232;2022-08-19T06:39:39;21.10;99.90
53114;DHT22;39009;53.166;6.232;2022-08-19T06:42:05;21.60;99.90
53114;DHT22;39009;53.166;6.232;2022-08-19T06:44:33;22.20;99.90
53114;DHT22;39009;53.166;6.232;2022-08-19T06:47:01;22.50;99.90
53114;DHT22;39009;53.166;6.232;2022-08-19T06:49:27;22.80;99.90
53114;DHT22;39009;53.166;6.232;2022-08-19T06:51:56;23.00;99.90
53114;DHT22;39009;53.166;6.232;2022-08-19T06:54:22;23.00;99.90
53114;DHT22;39009;53.166;6.232;2022-08-19T06:56:48;23.10;99.90
53114;DHT22;39009;53.166;6.232;2022-08-19T06:59:15;23.30;99.90
53114;DHT22;39009;53.166;6.232;2022-08-19T07:01:43;23.50;99.90
53114;DHT22;39009;53.166;6.232;2022-08-19T07:04:13;23.70;99.90
53114;DHT22;39009;53.166;6.232;2022-08-19T07:06:39;23.90;99.90
53114;DHT22;39009;53.166;6.232;2022-08-19T07:09:05;24.20;99.90
53114;DHT22;39009;53.166;6.232;2022-08-19T07:11:31;24.60;99.90
53114;DHT22;39009;53.166;6.232;2022-08-19T07:13:58;24.90;99.90
53114;DHT22;39009;53.166;6.232;2022-08-19T07:16:23;25.30;99.90
53114;DHT22;39009;53.166;6.232;2022-08-19T07:18:50;25.60;99.90
53114;DHT22;39009;53.166;6.232;2022-08-19T07:21:17;25.90;99.90
53114;DHT22;39009;53.166;6.232;2022-08-19T07:23:45;25.80;99.90
53114;DHT22;39009;53.166;6.232;2022-08-19T07:26:14;25.90;99.90
53114;DHT22;39009;53.166;6.232;2022-08-19T07:28:40;26.00;99.90
53114;DHT22;39009;53.166;6.232;2022-08-19T07:31:06;26.00;99.90
53114;DHT22;39009;53.166;6.232;2022-08-19T07:33:32;26.00;99.90
53114;DHT22;39009;53.166;6.232;2022-08-19T07:35:58;26.00;99.90
53114;DHT22;39009;53.166;6.232;2022-08-19T07:38:25;26.30;99.90
53114;DHT22;39009;53.166;6.232;2022-08-19T07:40:51;26.30;99.90
53114;DHT22;39009;53.166;6.232;2022-08-19T07:43:16;26.10;99.90
53114;DHT22;39009;53.166;6.232;2022-08-19T07:45:51;26.20;99.90
53114;DHT22;39009;53.166;6.232;2022-08-19T07:48:22;26.40;99.90
53114;DHT22;39009;53.166;6.232;2022-08-19T07:50:52;26.60;99.90
53114;DHT22;39009;53.166;6.232;2022-08-19T07:53:18;26.90;99.90
53114;DHT22;39009;53.166;6.232;2022-08-19T07:55:44;27.00;99.90
53114;DHT22;39009;53.166;6.232;2022-08-19T07:58:11;27.30;99.90
53114;DHT22;39009;53.166;6.232;2022-08-19T08:00:37;27.60;99.90
53114;DHT22;39009;53.166;6.232;2022-08-19T08:03:02;27.90;99.90
53114;DHT22;39009;53.166;6.232;2022-08-19T08:05:28;28.20;99.90
53114;DHT22;39009;53.166;6.232;2022-08-19T08:08:12;28.10;99.90
53114;DHT22;39009;53.166;6.232;2022-08-19T08:10:57;27.90;99.90
53114;DHT22;39009;53.166;6.232;2022-08-19T08:13:23;27.90;99.90
53114;DHT22;39009;53.166;6.232;2022-08-19T08:15:48;27.90;99.90
53114;DHT22;39009;53.166;6.232;2022-08-19T08:18:15;27.80;99.90
53114;DHT22;39009;53.166;6.232;2022-08-19T08:20:40;28.00;99.90
53114;DHT22;39009;53.166;6.232;2022-08-19T08:23:06;28.40;99.90
53114;DHT22;39009;53.166;6.232;2022-08-19T08:25:48;28.60;99.90
53114;DHT22;39009;53.166;6.232;2022-08-19T08:28:14;28.80;99.90
53114;DHT22;39009;53.166;6.232;2022-08-19T08:30:40;28.90;99.90
53114;DHT22;39009;53.166;6.232;2022-08-19T08:33:07;29.20;99.90
53114;DHT22;39009;53.166;6.232;2022-08-19T08:35:33;29.50;99.90
53114;DHT22;39009;53.166;6.232;2022-08-19T08:37:59;29.70;99.90
53114;DHT22;39009;53.166;6.232;2022-08-19T08:42:53;29.80;99.90
53114;DHT22;39009;53.166;6.232;2022-08-19T08:45:20;29.60;99.90
53114;DHT22;39009;53.166;6.232;2022-08-19T08:47:48;29.70;99.90
53114;DHT22;39009;53.166;6.232;2022-08-19T08:50:19;30.10;99.90
53114;DHT22;39009;53.166;6.232;2022-08-19T08:52:49;30.40;99.80
53114;DHT22;39009;53.166;6.232;2022-08-19T08:55:19;30.60;99.90
53114;DHT22;39009;53.166;6.232;2022-08-19T09:00:17;31.20;98.60
53114;DHT22;39009;53.166;6.232;2022-08-19T09:02:43;31.30;98.10
53114;DHT22;39009;53.166;6.232;2022-08-19T09:05:09;31.40;97.30
53114;DHT22;39009;53.166;6.232;2022-08-19T09:07:45;31.50;97.50
53114;DHT22;39009;53.166;6.232;2022-08-19T09:10:20;31.70;95.10
53114;DHT22;39009;53.166;6.232;2022-08-19T09:12:53;31.90;97.80
53114;DHT22;39009;53.166;6.232;2022-08-19T09:15:22;31.90;98.00
53114;DHT22;39009;53.166;6.232;2022-08-19T09:17:49;32.00;97.20
53114;DHT22;39009;53.166;6.232;2022-08-19T09:22:41;31.90;96.20
53114;DHT22;39009;53.166;6.232;2022-08-19T09:25:10;31.80;98.10
53114;DHT22;39009;53.166;6.232;2022-08-19T09:27:36;31.90;97.10
53114;DHT22;39009;53.166;6.232;2022-08-19T09:30:03;31.90;96.00
53114;DHT22;39009;53.166;6.232;2022-08-19T09:32:30;32.10;96.50
53114;DHT22;39009;53.166;6.232;2022-08-19T09:34:55;32.30;95.80
53114;DHT22;39009;53.166;6.232;2022-08-19T09:37:23;32.20;96.40
53114;DHT22;39009;53.166;6.232;2022-08-19T09:39:49;32.20;96.70
53114;DHT22;39009;53.166;6.232;2022-08-19T09:42:15;32.50;96.30
53114;DHT22;39009;53.166;6.232;2022-08-19T09:44:41;32.60;94.00
53114;DHT22;39009;53.166;6.232;2022-08-19T09:47:08;32.80;94.60
53114;DHT22;39009;53.166;6.232;2022-08-19T09:49:33;33.00;94.80
53114;DHT22;39009;53.166;6.232;2022-08-19T09:51:59;33.30;94.80
53114;DHT22;39009;53.166;6.232;2022-08-19T09:54:25;33.20;95.70
53114;DHT22;39009;53.166;6.232;2022-08-19T09:56:52;33.10;92.60
53114;DHT22;39009;53.166;6.232;2022-08-19T09:59:18;33.00;93.60
53114;DHT22;39009;53.166;6.232;2022-08-19T10:01:43;32.80;93.90
53114;DHT22;39009;53.166;6.232;2022-08-19T10:04:09;32.40;93.20
53114;DHT22;39009;53.166;6.232;2022-08-19T10:06:36;31.90;95.50
53114;DHT22;39009;53.166;6.232;2022-08-19T10:09:03;31.90;94.50
53114;DHT22;39009;53.166;6.232;2022-08-19T10:11:32;31.70;96.00
53114;DHT22;39009;53.166;6.232;2022-08-19T10:13:57;31.70;95.40
53114;DHT22;39009;53.166;6.232;2022-08-19T10:16:23;31.60;95.30
53114;DHT22;39009;53.166;6.232;2022-08-19T10:18:50;31.80;95.20
53114;DHT22;39009;53.166;6.232;2022-08-19T10:21:17;32.00;94.60
53114;DHT22;39009;53.166;6.232;2022-08-19T10:23:44;32.20;94.30
53114;DHT22;39009;53.166;6.232;2022-08-19T10:26:11;32.30;94.40
53114;DHT22;39009;53.166;6.232;2022-08-19T10:28:37;32.40;94.20
53114;DHT22;39009;53.166;6.232;2022-08-19T10:31:04;32.30;93.40
53114;DHT22;39009;53.166;6.232;2022-08-19T10:33:30;32.30;94.30
53114;DHT22;39009;53.166;6.232;2022-08-19T10:36:00;31.90;94.10
53114;DHT22;39009;53.166;6.232;2022-08-19T10:38:25;31.50;93.70
53114;DHT22;39009;53.166;6.232;2022-08-19T10:40:51;31.00;93.80
53114;DHT22;39009;53.166;6.232;2022-08-19T10:43:18;30.60;94.60
53114;DHT22;39009;53.166;6.232;2022-08-19T10:45:48;30.20;94.70
53114;DHT22;39009;53.166;6.232;2022-08-19T10:48:13;29.60;95.10
53114;DHT22;39009;53.166;6.232;2022-08-19T10:50:39;29.20;95.30
53114;DHT22;39009;53.166;6.232;2022-08-19T10:53:23;29.20;95.20
53114;DHT22;39009;53.166;6.232;2022-08-19T10:55:50;29.30;95.50
53114;DHT22;39009;53.166;6.232;2022-08-19T10:58:35;29.30;94.70
53114;DHT22;39009;53.166;6.232;2022-08-19T11:01:00;29.30;95.10
53114;DHT22;39009;53.166;6.232;2022-08-19T11:03:26;29.20;95.50
53114;DHT22;39009;53.166;6.232;2022-08-19T11:05:58;29.20;95.00
53114;DHT22;39009;53.166;6.232;2022-08-19T11:08:24;29.40;95.30
53114;DHT22;39009;53.166;6.232;2022-08-19T11:10:52;29.60;95.70
53114;DHT22;39009;53.166;6.232;2022-08-19T11:13:20;29.60;94.60
53114;DHT22;39009;53.166;6.232;2022-08-19T11:15:46;29.50;95.40
53114;DHT22;39009;53.166;6.232;2022-08-19T11:18:12;29.30;95.70
53114;DHT22;39009;53.166;6.232;2022-08-19T11:20:38;29.00;95.90
53114;DHT22;39009;53.166;6.232;2022-08-19T11:23:03;28.60;95.90
53114;DHT22;39009;53.166;6.232;2022-08-19T11:25:29;28.50;96.70
53114;DHT22;39009;53.166;6.232;2022-08-19T11:27:55;28.30;96.50
53114;DHT22;39009;53.166;6.232;2022-08-19T11:30:21;28.10;96.50
53114;DHT22;39009;53.166;6.232;2022-08-19T11:32:46;28.00;96.40
53114;DHT22;39009;53.166;6.232;2022-08-19T11:35:13;28.00;96.30
53114;DHT22;39009;53.166;6.232;2022-08-19T11:37:38;27.90;96.80
53114;DHT22;39009;53.166;6.232;2022-08-19T11:40:05;27.80;96.90
53114;DHT22;39009;53.166;6.232;2022-08-19T11:42:31;27.70;97.20
53114;DHT22;39009;53.166;6.232;2022-08-19T11:45:23;27.80;97.20
53114;DHT22;39009;53.166;6.232;2022-08-19T11:47:49;27.90;97.20
53114;DHT22;39009;53.166;6.232;2022-08-19T11:50:15;28.00;97.40
53114;DHT22;39009;53.166;6.232;2022-08-19T11:52:42;28.00;97.10
53114;DHT22;39009;53.166;6.232;2022-08-19T11:55:09;27.90;97.30
53114;DHT22;39009;53.166;6.232;2022-08-19T11:57:34;27.80;97.30
53114;DHT22;39009;53.166;6.232;2022-08-19T12:00:00;27.70;97.40
53114;DHT22;39009;53.166;6.232;2022-08-19T12:02:26;27.70;97.70
53114;DHT22;39009;53.166;6.232;2022-08-19T12:04:52;27.60;97.40
53114;DHT22;39009;53.166;6.232;2022-08-19T12:07:17;27.50;97.20
53114;DHT22;39009;53.166;6.232;2022-08-19T12:09:43;27.40;97.40
53114;DHT22;39009;53.166;6.232;2022-08-19T12:12:09;27.40;97.70
53114;DHT22;39009;53.166;6.232;2022-08-19T12:14:34;27.30;97.40
53114;DHT22;39009;53.166;6.232;2022-08-19T12:17:00;27.20;97.40
53114;DHT22;39009;53.166;6.232;2022-08-19T12:19:27;27.20;97.20
53114;DHT22;39009;53.166;6.232;2022-08-19T12:21:54;27.10;97.60
53114;DHT22;39009;53.166;6.232;2022-08-19T12:24:25;27.10;98.20
53114;DHT22;39009;53.166;6.232;2022-08-19T12:26:50;27.30;99.10
53114;DHT22;39009;53.166;6.232;2022-08-19T12:29:16;27.40;98.90
53114;DHT22;39009;53.166;6.232;2022-08-19T12:31:42;27.50;98.60
53114;DHT22;39009;53.166;6.232;2022-08-19T12:34:07;27.50;98.90
53114;DHT22;39009;53.166;6.232;2022-08-19T12:36:33;27.50;98.40
53114;DHT22;39009;53.166;6.232;2022-08-19T12:38:59;27.50;98.30
53114;DHT22;39009;53.166;6.232;2022-08-19T12:41:25;27.30;98.30
53114;DHT22;39009;53.166;6.232;2022-08-19T12:43:51;27.10;98.70
53114;DHT22;39009;53.166;6.232;2022-08-19T12:46:17;26.80;99.00
53114;DHT22;39009;53.166;6.232;2022-08-19T12:48:43;26.60;99.90
53114;DHT22;39009;53.166;6.232;2022-08-19T12:51:11;26.10;99.90
53114;DHT22;39009;53.166;6.232;2022-08-19T12:53:37;25.80;99.90
53114;DHT22;39009;53.166;6.232;2022-08-19T12:56:04;25.40;99.90
53114;DHT22;39009;53.166;6.232;2022-08-19T12:58:30;25.10;99.90
53114;DHT22;39009;53.166;6.232;2022-08-19T13:00:56;24.90;99.90
53114;DHT22;39009;53.166;6.232;2022-08-19T13:03:21;24.80;99.90
53114;DHT22;39009;53.166;6.232;2022-08-19T13:05:52;24.70;99.90
53114;DHT22;39009;53.166;6.232;2022-08-19T13:08:18;24.60;99.90
53114;DHT22;39009;53.166;6.232;2022-08-19T13:10:43;24.60;99.90
53114;DHT22;39009;53.166;6.232;2022-08-19T13:13:09;24.50;99.90
53114;DHT22;39009;53.166;6.232;2022-08-19T13:15:36;24.40;99.90
53114;DHT22;39009;53.166;6.232;2022-08-19T13:18:02;24.30;99.90
53114;DHT22;39009;53.166;6.232;2022-08-19T13:20:27;24.40;99.90
53114;DHT22;39009;53.166;6.232;2022-08-19T13:22:53;24.40;99.90
53114;DHT22;39009;53.166;6.232;2022-08-19T13:25:19;24.50;99.90
53114;DHT22;39009;53.166;6.232;2022-08-19T13:27:45;24.70;99.90
53114;DHT22;39009;53.166;6.232;2022-08-19T13:30:12;25.00;99.90
53114;DHT22;39009;53.166;6.232;2022-08-19T13:32:56;25.20;99.90
53114;DHT22;39009;53.166;6.232;2022-08-19T13:38:10;25.70;99.90
53114;DHT22;39009;53.166;6.232;2022-08-19T13:40:36;25.80;99.90
53114;DHT22;39009;53.166;6.232;2022-08-19T13:43:03;25.90;99.90
53114;DHT22;39009;53.166;6.232;2022-08-19T13:45:30;25.90;99.90
53114;DHT22;39009;53.166;6.232;2022-08-19T13:47:59;25.90;99.90
53114;DHT22;39009;53.166;6.232;2022-08-19T13:50:26;26.00;99.90
53114;DHT22;39009;53.166;6.232;2022-08-19T13:52:53;26.00;99.90
53114;DHT22;39009;53.166;6.232;2022-08-19T13:55:19;26.00;99.90
53114;DHT22;39009;53.166;6.232;2022-08-19T13:57:45;25.90;99.90
53114;DHT22;39009;53.166;6.232;2022-08-19T14:00:12;25.80;99.90
53114;DHT22;39009;53.166;6.232;2022-08-19T14:02:39;25.70;99.90
53114;DHT22;39009;53.166;6.232;2022-08-19T14:05:05;25.70;99.90
53114;DHT22;39009;53.166;6.232;2022-08-19T14:07:31;25.60;99.90
53114;DHT22;39009;53.166;6.232;2022-08-19T14:09:57;25.50;99.90
53114;DHT22;39009;53.166;6.232;2022-08-19T14:12:22;25.50;99.90
53114;DHT22;39009;53.166;6.232;2022-08-19T14:14:48;25.40;99.90
53114;DHT22;39009;53.166;6.232;2022-08-19T14:17:14;25.40;99.90
53114;DHT22;39009;53.166;6.232;2022-08-19T14:19:40;25.30;99.90
53114;DHT22;39009;53.166;6.232;2022-08-19T14:22:06;25.30;99.90
53114;DHT22;39009;53.166;6.232;2022-08-19T14:24:31;25.20;99.90
53114;DHT22;39009;53.166;6.232;2022-08-19T14:26:57;25.30;99.90
53114;DHT22;39009;53.166;6.232;2022-08-19T14:29:23;25.30;99.90
53114;DHT22;39009;53.166;6.232;2022-08-19T14:31:49;25.50;99.90
53114;DHT22;39009;53.166;6.232;2022-08-19T14:34:15;25.70;99.90
53114;DHT22;39009;53.166;6.232;2022-08-19T14:36:40;25.80;99.90
53114;DHT22;39009;53.166;6.232;2022-08-19T14:39:07;26.00;99.90
53114;DHT22;39009;53.166;6.232;2022-08-19T14:41:33;26.00;99.90
53114;DHT22;39009;53.166;6.232;2022-08-19T14:43:59;26.00;99.90
53114;DHT22;39009;53.166;6.232;2022-08-19T14:46:26;26.20;99.90
53114;DHT22;39009;53.166;6.232;2022-08-19T14:48:52;26.20;99.90
53114;DHT22;39009;53.166;6.232;2022-08-19T14:51:19;26.10;99.90
53114;DHT22;39009;53.166;6.232;2022-08-19T14:53:45;25.90;99.90
53114;DHT22;39009;53.166;6.232;2022-08-19T14:56:11;25.80;99.90
53114;DHT22;39009;53.166;6.232;2022-08-19T14:58:38;25.70;99.90
53114;DHT22;39009;53.166;6.232;2022-08-19T15:01:06;25.70;99.90
53114;DHT22;39009;53.166;6.232;2022-08-19T15:03:31;25.80;99.90
53114;DHT22;39009;53.166;6.232;2022-08-19T15:05:57;25.90;99.90
53114;DHT22;39009;53.166;6.232;2022-08-19T15:08:23;25.90;99.90
53114;DHT22;39009;53.166;6.232;2022-08-19T15:10:50;25.90;99.90
53114;DHT22;39009;53.166;6.232;2022-08-19T15:13:16;26.00;99.90
53114;DHT22;39009;53.166;6.232;2022-08-19T15:15:41;26.10;99.90
53114;DHT22;39009;53.166;6.232;2022-08-19T15:18:07;26.20;99.90
53114;DHT22;39009;53.166;6.232;2022-08-19T15:20:32;26.20;99.90
53114;DHT22;39009;53.166;6.232;2022-08-19T15:22:58;26.10;99.90
53114;DHT22;39009;53.166;6.232;2022-08-19T15:25:25;26.20;99.90
53114;DHT22;39009;53.166;6.232;2022-08-19T15:27:51;26.00;99.90
53114;DHT22;39009;53.166;6.232;2022-08-19T15:30:20;25.90;99.90
53114;DHT22;39009;53.166;6.232;2022-08-19T15:32:46;25.60;99.90
53114;DHT22;39009;53.166;6.232;2022-08-19T15:35:12;25.60;99.90
53114;DHT22;39009;53.166;6.232;2022-08-19T15:37:38;25.60;99.90
53114;DHT22;39009;53.166;6.232;2022-08-19T15:40:04;25.60;99.90